Time;durP1;ratioP1;P1;durP2;ratioP2;P2;SDS_P1;SDS_P2;PMS_P1;PMS_P2;Temp;Humidity;BMP_temperature;BMP_pressure;BME280_temperature;BME280_humidity;BME280_pressure;Samples;Min_cycle;Max_cycle;Signal;HPM_P1;HPM_P2
2022/10/10 00:03:52;;;;;;;22.32;11.65;;;;;;;3.85;93.04;100084.22;4147549;85;21159;-83
2022/10/10 00:09:54;;;;;;;23.25;10.35;;;;;;;3.65;93.00;100075.19;4141576;85;21016;-84
2022/10/10 00:15:55;;;;;;;20.17;11.53;;;;;;;3.64;93.30;100070.86;4146428;85;21055;-83
2022/10/10 00:21:56;;;;;;;20.00;10.63;;;;;;;3.59;93.66;100062.29;4138515;85;21568;-83
2022/10/10 00:28:02;;;;;;;24.50;11.30;;;;;;;3.59;93.94;100056.88;4139446;85;21602;-83
2022/10/10 00:34:03;;;;;;;22.65;12.07;;;;;;;3.66;94.31;100052.41;4141402;85;21103;-84
2022/10/10 00:40:06;;;;;;;21.12;10.23;;;;;;;3.69;94.36;100040.97;4144738;85;22214;-83
2022/10/10 00:46:08;;;;;;;18.45;10.48;;;;;;;3.66;94.17;100041.03;4142368;84;21171;-85
2022/10/10 00:52:11;;;;;;;20.12;9.15;;;;;;;3.62;94.47;100042.73;4139234;85;21096;-83
2022/10/10 00:58:14;;;;;;;26.30;10.40;;;;;;;3.58;94.12;100042.29;4139933;85;21099;-82
2022/10/10 01:04:33;;;;;;;20.85;10.53;;;;;;;3.56;94.72;100039.89;4129524;85;21077;-82
2022/10/10 01:11:23;;;;;;;20.52;9.15;;;;;;;3.48;94.44;100034.41;4134403;85;21035;-83
2022/10/10 01:17:39;;;;;;;23.80;11.05;;;;;;;3.36;94.43;100022.73;4138057;85;21044;-83
2022/10/10 01:24:10;;;;;;;21.37;11.50;;;;;;;3.26;94.65;100034.32;4138214;85;21016;-83
2022/10/10 01:30:16;;;;;;;28.52;14.45;;;;;;;3.30;95.48;100030.70;4134458;85;21036;-85
2022/10/10 01:36:39;;;;;;;22.60;11.70;;;;;;;3.37;95.79;100012.71;4127920;85;21009;-83
2022/10/10 01:42:49;;;;;;;21.77;11.48;;;;;;;3.40;95.97;100003.98;4134865;85;21045;-82
2022/10/10 01:48:56;;;;;;;20.15;11.15;;;;;;;3.48;96.34;99998.64;4138846;85;21075;-83
2022/10/10 01:55:31;;;;;;;24.27;12.85;;;;;;;3.49;96.36;99998.91;4153399;85;21111;-83
2022/10/10 02:01:49;;;;;;;24.98;14.40;;;;;;;3.48;96.41;99989.16;4127458;85;21175;-84
2022/10/10 02:08:05;;;;;;;21.02;12.98;;;;;;;3.40;96.30;99987.17;4138085;85;21024;-83
2022/10/10 02:14:22;;;;;;;24.77;14.43;;;;;;;3.38;96.68;99981.83;4138362;85;21027;-82
2022/10/10 02:20:27;;;;;;;26.50;13.72;;;;;;;3.36;96.79;99971.30;4136251;85;21982;-83
2022/10/10 02:26:31;;;;;;;23.00;13.90;;;;;;;3.37;97.23;99971.54;4117101;85;21548;-82
2022/10/10 02:32:52;;;;;;;23.35;14.30;;;;;;;3.37;97.08;99979.66;4139941;84;21004;-85
2022/10/10 02:38:55;;;;;;;27.30;15.10;;;;;;;3.35;96.84;99975.67;4144324;82;21017;-83
2022/10/10 02:44:57;;;;;;;25.27;14.55;;;;;;;3.24;96.94;99981.28;4163863;84;21488;-83
2022/10/10 02:50:58;;;;;;;30.30;15.53;;;;;;;3.21;97.37;99965.66;4187364;84;21121;-83
2022/10/10 02:57:00;;;;;;;22.58;13.75;;;;;;;3.17;97.19;99966.57;4155606;84;21005;-83
2022/10/10 03:03:01;;;;;;;25.82;12.58;;;;;;;3.14;97.31;99958.52;4066318;86;21006;-82
2022/10/10 03:09:03;;;;;;;22.73;14.43;;;;;;;3.12;97.30;99951.79;4162020;84;21924;-83
2022/10/10 03:15:05;;;;;;;20.95;13.48;;;;;;;3.05;97.38;99935.96;4149169;84;20998;-83
2022/10/10 03:21:07;;;;;;;25.15;14.10;;;;;;;3.01;97.45;99938.22;4156792;84;20986;-83
2022/10/10 03:27:09;;;;;;;27.40;14.07;;;;;;;2.95;97.47;99936.19;4071659;85;21492;-83
2022/10/10 03:33:10;;;;;;;23.45;12.43;;;;;;;2.87;97.34;99926.63;4219584;84;20984;-83
2022/10/10 03:39:12;;;;;;;28.67;13.98;;;;;;;2.87;98.09;99926.08;4174874;84;21502;-84
2022/10/10 03:45:13;;;;;;;21.75;12.00;;;;;;;2.94;98.34;99921.62;4159539;84;21938;-83
2022/10/10 03:51:15;;;;;;;23.85;12.73;;;;;;;2.94;98.19;99913.51;4167728;84;20990;-83
2022/10/10 03:57:17;;;;;;;26.60;14.33;;;;;;;2.89;98.21;99918.47;4159036;84;20994;-83
2022/10/10 04:03:20;;;;;;;30.08;15.83;;;;;;;2.89;98.33;99921.18;4206461;84;21023;-83
2022/10/10 04:09:22;;;;;;;29.18;16.40;;;;;;;2.79;98.05;99916.50;4228241;84;21048;-82
2022/10/10 04:15:24;;;;;;;26.70;16.40;;;;;;;2.80;98.52;99905.39;4153903;84;21883;-83
2022/10/10 04:21:25;;;;;;;26.10;16.05;;;;;;;2.78;98.48;99918.43;4186255;84;20984;-83
2022/10/10 04:27:28;;;;;;;25.75;15.68;;;;;;;2.71;98.17;99913.96;4221339;84;20981;-83
2022/10/10 04:33:29;;;;;;;23.73;14.75;;;;;;;2.66;98.45;99916.76;4221764;84;21036;-83
2022/10/10 04:39:31;;;;;;;25.15;15.43;;;;;;;2.64;98.45;99914.93;4155249;84;21063;-83
2022/10/10 04:45:32;;;;;;;26.52;14.30;;;;;;;2.53;98.70;99915.42;4208789;84;21928;-83
2022/10/10 04:51:34;;;;;;;25.02;14.65;;;;;;;2.49;98.84;99900.34;4159065;84;20994;-84
2022/10/10 04:57:35;;;;;;;22.10;12.68;;;;;;;2.45;98.75;99903.41;4003450;86;21032;-84
2022/10/10 05:03:55;;;;;;;28.25;15.38;;;;;;;2.39;98.48;99905.15;4204557;84;21068;-84
2022/10/10 05:09:56;;;;;;;28.32;15.90;;;;;;;2.31;98.88;99903.95;4176668;84;20998;-83
2022/10/10 05:15:59;;;;;;;35.45;16.45;;;;;;;2.37;100.00;99909.50;4159248;84;21016;-84
2022/10/10 05:22:00;;;;;;;29.75;16.60;;;;;;;2.50;99.70;99904.67;4162975;84;21010;-84
2022/10/10 05:30:26;;;;;;;23.67;14.75;;;;;;;2.59;100.00;99895.30;4662036;74;23010;-85
2022/10/10 05:36:38;;;;;;;29.77;16.15;;;;;;;2.59;100.00;99901.51;4577573;76;20959;-82
2022/10/10 05:42:41;;;;;;;25.72;13.93;;;;;;;2.66;100.00;99909.22;4560828;76;21046;-84
2022/10/10 05:48:42;;;;;;;25.92;15.05;;;;;;;2.66;100.00;99912.70;4560273;76;21042;-84
2022/10/10 05:54:44;;;;;;;28.50;14.80;;;;;;;2.71;100.00;99913.19;4556942;76;21072;-84
2022/10/10 06:00:47;;;;;;;26.42;15.40;;;;;;;2.83;100.00;99916.98;4594055;76;20984;-84
2022/10/10 06:06:55;;;;;;;21.37;14.50;;;;;;;3.20;100.00;99922.67;4547034;76;21621;-84
2022/10/10 06:12:57;;;;;;;19.70;12.23;;;;;;;3.84;100.00;99923.60;4546607;76;21035;-83
2022/10/10 06:18:58;;;;;;;19.45;11.18;;;;;;;4.55;100.00;99920.67;4489233;78;20951;-85
2022/10/10 06:25:00;;;;;;;19.52;12.43;;;;;;;5.03;100.00;99922.59;4522099;76;20995;-84
2022/10/10 06:31:05;;;;;;;17.75;11.00;;;;;;;5.28;100.00;99912.33;4489531;78;21042;-84
2022/10/10 06:37:11;;;;;;;23.73;12.40;;;;;;;5.45;100.00;99915.05;4451032;78;20999;-84
2022/10/10 06:43:14;;;;;;;16.60;11.60;;;;;;;5.58;100.00;99916.25;4534460;77;21047;-85
2022/10/10 06:49:16;;;;;;;21.15;11.38;;;;;;;5.75;100.00;99918.95;4524845;77;22034;-84
2022/10/10 06:55:18;;;;;;;21.70;11.33;;;;;;;5.88;100.00;99904.44;4537313;77;21058;-84
2022/10/10 07:01:23;;;;;;;21.20;11.30;;;;;;;6.11;100.00;99905.83;4525928;76;21448;-84
2022/10/10 07:07:28;;;;;;;15.72;8.53;;;;;;;6.39;100.00;99905.66;4543412;76;21016;-83
2022/10/10 07:13:30;;;;;;;16.93;9.40;;;;;;;6.65;100.00;99896.61;4522017;77;20958;-84
2022/10/10 07:19:36;;;;;;;16.00;8.55;;;;;;;6.97;100.00;99895.97;4540372;76;21652;-84
2022/10/10 07:25:39;;;;;;;15.53;8.80;;;;;;;7.38;100.00;99891.36;4514029;76;21060;-84
2022/10/10 07:31:42;;;;;;;13.65;8.15;;;;;;;7.85;100.00;99894.64;4451203;79;21028;-84
2022/10/10 07:37:45;;;;;;;11.60;5.97;;;;;;;8.47;100.00;99890.41;4201294;79;186808;-85
2022/10/10 07:43:55;;;;;;;10.85;5.15;;;;;;;9.16;99.60;99891.09;4107686;85;21507;-83
2022/10/10 07:49:57;;;;;;;7.58;5.33;;;;;;;9.61;98.40;99877.20;4085729;85;22028;-85
2022/10/10 07:55:58;;;;;;;8.03;5.35;;;;;;;9.99;97.44;99881.02;4106376;85;22327;-85
2022/10/10 08:02:00;;;;;;;7.10;4.78;;;;;;;10.35;96.61;99876.73;4101549;85;21082;-85
2022/10/10 08:08:06;;;;;;;9.53;4.22;;;;;;;10.83;96.46;99880.51;4106187;85;21057;-85
2022/10/10 08:14:08;;;;;;;7.67;4.85;;;;;;;11.85;95.38;99860.84;4109449;85;21106;-84
2022/10/10 08:20:13;;;;;;;12.60;4.87;;;;;;;11.85;95.38;99860.84;4096552;85;21073;-85
2022/10/10 08:26:18;;;;;;;9.28;4.97;;;;;;;12.27;94.25;99862.20;4122325;82;21441;-85
2022/10/10 08:32:20;;;;;;;9.90;4.90;;;;;;;12.94;93.98;99867.44;4231173;82;21486;-85
2022/10/10 08:38:22;;;;;;;10.32;5.20;;;;;;;13.58;92.90;99843.25;4242381;82;21029;-85
2022/10/10 08:44:55;;;;;;;9.60;6.50;;;;;;;14.23;92.37;99842.79;4242290;82;20978;-85
2022/10/10 08:51:06;;;;;;;10.53;6.72;;;;;;;14.99;91.06;99831.65;4230804;82;21073;-85
2022/10/10 08:57:15;;;;;;;11.30;6.33;;;;;;;15.89;89.25;99826.20;4227848;82;21117;-86
2022/10/10 09:03:42;;;;;;;11.18;6.28;;;;;;;16.52;88.57;99824.96;4226448;82;21073;-85
2022/10/10 09:10:08;;;;;;;;;;;;;;;16.86;87.17;99804.00;4227765;82;21013;-86
2022/10/10 09:16:45;;;;;;;9.68;5.37;;;;;;;17.47;84.51;99799.92;4230948;82;20137;-88
2022/10/10 09:23:23;;;;;;;10.90;5.28;;;;;;;18.04;84.43;99797.07;4230134;82;21061;-87
2022/10/10 09:29:52;;;;;;;7.10;4.60;;;;;;;18.53;82.39;99793.37;4208801;82;21694;-86
2022/10/10 09:36:00;;;;;;;10.78;4.97;;;;;;;19.12;80.75;99780.72;4181193;83;21009;-86
2022/10/10 09:42:11;;;;;;;10.95;4.95;;;;;;;19.55;79.74;99777.65;4184258;83;21096;-86
2022/10/10 09:48:13;;;;;;;9.05;5.08;;;;;;;19.93;77.91;99776.34;4176866;83;22130;-86
2022/10/10 09:54:22;;;;;;;9.95;4.80;;;;;;;20.27;76.60;99770.10;4184939;83;21148;-86
2022/10/10 10:00:28;;;;;;;11.63;5.30;;;;;;;20.66;74.74;99768.85;4210319;83;21074;-85
2022/10/10 10:06:30;;;;;;;;;;;;;;;20.77;73.20;99761.11;4194286;83;21061;-88
2022/10/10 10:12:43;;;;;;;6.75;3.62;;;;;;;21.18;70.23;99763.55;4182053;83;20118;-86
2022/10/10 10:18:47;;;;;;;6.90;3.95;;;;;;;21.48;69.63;99749.41;4177065;84;21025;-86
2022/10/10 10:24:48;;;;;;;4.50;3.12;;;;;;;21.46;69.12;99750.44;4189127;83;21100;-86
2022/10/10 10:30:54;;;;;;;7.58;3.45;;;;;;;21.55;67.87;99739.50;4195236;82;21081;-86
2022/10/10 10:37:12;;;;;;;6.57;2.90;;;;;;;21.30;66.79;99728.89;4208999;83;21037;-87
2022/10/10 10:43:37;;;;;;;4.67;2.62;;;;;;;20.68;63.89;99719.74;4207918;83;21025;-86
2022/10/10 10:50:11;;;;;;;6.87;2.40;;;;;;;20.68;63.89;99719.74;4205273;83;21070;-85
2022/10/10 10:56:39;;;;;;;4.75;2.60;;;;;;;20.19;62.72;99712.45;4201690;83;21017;-85
2022/10/10 11:03:27;;;;;;;6.30;2.47;;;;;;;20.10;62.15;99701.05;4196328;83;21077;-85
2022/10/10 11:09:34;;;;;;;4.87;2.60;;;;;;;19.64;60.52;99694.01;4201444;83;21120;-86
2022/10/10 11:15:51;;;;;;;4.15;2.62;;;;;;;19.37;60.36;99678.54;4207932;83;21037;-86
2022/10/10 11:22:10;;;;;;;4.60;2.70;;;;;;;19.29;59.45;99672.89;4186586;83;20966;-85
2022/10/10 11:28:40;;;;;;;5.60;2.87;;;;;;;18.80;58.06;99665.94;4220578;82;21018;-86
2022/10/10 11:35:07;;;;;;;4.78;2.52;;;;;;;18.63;58.10;99654.44;4248221;82;21009;-86
2022/10/10 11:41:26;;;;;;;3.22;2.40;;;;;;;18.44;57.67;99653.05;4242287;82;21045;-85
2022/10/10 11:47:38;;;;;;;4.58;2.67;;;;;;;18.33;57.43;99644.62;4223418;82;21082;-85
2022/10/10 11:53:43;;;;;;;5.15;2.60;;;;;;;18.20;56.31;99638.00;4242107;82;21132;-85
2022/10/10 11:59:56;;;;;;;4.85;2.70;;;;;;;17.85;56.55;99623.89;4242745;82;21048;-85
2022/10/10 12:06:04;;;;;;;4.80;2.30;;;;;;;17.74;56.16;99616.85;4235948;82;22335;-86
2022/10/10 12:12:25;;;;;;;4.30;2.85;;;;;;;17.61;56.72;99608.83;4239619;82;21041;-85
2022/10/10 12:18:32;;;;;;;4.30;2.75;;;;;;;17.48;56.22;99600.84;4210724;82;21065;-85
2022/10/10 12:24:37;;;;;;;4.85;2.92;;;;;;;17.48;57.03;99602.23;4240089;82;21096;-85
2022/10/10 12:31:06;;;;;;;7.35;2.83;;;;;;;17.45;56.69;99593.33;4240549;82;21127;-85
2022/10/10 12:37:32;;;;;;;5.60;2.90;;;;;;;17.38;56.86;99584.47;4249732;82;21033;-84
2022/10/10 12:43:49;;;;;;;4.97;2.95;;;;;;;17.23;57.12;99572.70;4222862;82;21050;-84
2022/10/10 12:49:57;;;;;;;4.67;2.60;;;;;;;17.18;57.45;99568.97;4243819;82;21014;-84
2022/10/10 12:56:02;;;;;;;4.33;3.15;;;;;;;17.23;57.27;99555.30;4214341;82;21108;-85
2022/10/10 13:02:16;;;;;;;7.28;2.85;;;;;;;17.16;57.23;99553.98;4245560;82;21108;-84
2022/10/10 13:08:22;;;;;;;4.97;2.70;;;;;;;17.10;57.06;99547.31;4234168;82;21872;-84
2022/10/10 13:14:28;;;;;;;13.13;3.23;;;;;;;17.03;57.12;99533.51;4243952;82;21494;-84
2022/10/10 13:20:38;;;;;;;4.33;2.67;;;;;;;17.04;57.21;99526.77;4249848;82;21092;-85
2022/10/10 13:26:48;;;;;;;4.95;2.90;;;;;;;17.11;57.50;99523.39;4225078;82;21052;-85
2022/10/10 13:33:00;;;;;;;4.90;2.72;;;;;;;17.03;57.41;99515.53;4244706;82;21021;-84
2022/10/10 13:39:01;;;;;;;5.25;2.30;;;;;;;16.99;57.22;99510.63;4248214;82;21037;-85
2022/10/10 13:45:24;;;;;;;4.53;2.35;;;;;;;16.97;57.30;99501.94;4245719;82;21039;-84
2022/10/10 13:51:44;;;;;;;7.30;2.98;;;;;;;16.97;57.22;99504.70;4249283;82;21078;-85
2022/10/10 13:57:49;;;;;;;6.83;2.70;;;;;;;16.86;57.30;99499.84;4250653;82;21032;-85
2022/10/10 14:03:52;;;;;;;6.47;2.62;;;;;;;16.85;57.29;99494.89;4262107;82;22277;-84
2022/10/10 14:10:05;;;;;;;3.77;2.40;;;;;;;16.90;57.18;99492.30;4255977;82;21053;-84
2022/10/10 14:16:21;;;;;;;6.22;2.45;;;;;;;16.83;57.23;99485.44;4245164;83;21573;-84
2022/10/10 14:22:25;;;;;;;5.15;2.27;;;;;;;16.74;57.29;99474.05;4257964;81;20985;-85
2022/10/10 14:28:32;;;;;;;5.90;2.45;;;;;;;16.64;57.48;99463.25;4250133;82;21495;-84
2022/10/10 14:34:37;;;;;;;8.18;3.15;;;;;;;16.53;58.05;99459.75;4240677;82;22008;-84
2022/10/10 14:40:43;;;;;;;7.47;2.92;;;;;;;16.37;58.32;99455.84;4246744;82;21062;-84
2022/10/10 14:46:44;;;;;;;6.70;3.10;;;;;;;16.23;58.33;99453.14;4229524;82;21053;-84
2022/10/10 14:52:47;;;;;;;6.97;2.95;;;;;;;16.12;58.61;99443.53;4297884;82;20989;-84
2022/10/10 14:58:49;;;;;;;6.05;3.02;;;;;;;16.04;59.06;99446.70;4201160;82;20951;-83
2022/10/10 15:04:50;;;;;;;5.83;2.60;;;;;;;15.97;59.37;99439.84;4248760;82;21093;-84
2022/10/10 15:10:51;;;;;;;9.05;3.25;;;;;;;15.84;59.79;99435.35;4329912;82;21012;-84
2022/10/10 15:16:55;;;;;;;7.12;2.77;;;;;;;15.68;60.46;99433.03;4226760;82;21920;-84
2022/10/10 15:23:00;;;;;;;7.37;2.75;;;;;;;15.54;60.41;99434.44;4232255;82;20995;-84
2022/10/10 15:29:01;;;;;;;5.33;3.02;;;;;;;15.39;60.71;99434.25;4205120;82;21065;-84
2022/10/10 15:35:03;;;;;;;8.45;2.75;;;;;;;15.29;61.46;99437.00;4215240;82;21065;-84
2022/10/10 15:41:09;;;;;;;6.60;2.98;;;;;;;15.18;61.95;99431.50;4227269;82;21048;-84
2022/10/10 15:47:11;;;;;;;6.35;3.25;;;;;;;15.02;62.41;99432.48;4231137;82;21045;-84
2022/10/10 15:53:13;;;;;;;5.40;2.87;;;;;;;14.88;62.97;99426.16;4220885;82;21601;-84
2022/10/10 15:59:15;;;;;;;8.08;3.42;;;;;;;14.70;64.02;99426.74;4238474;82;20970;-84
2022/10/10 16:05:17;;;;;;;11.60;3.20;;;;;;;14.47;64.24;99434.58;4216659;82;21045;-84
2022/10/10 16:11:27;;;;;;;8.13;4.40;;;;;;;14.10;64.83;99434.23;4227597;82;21017;-84
2022/10/10 16:17:28;;;;;;;7.80;4.12;;;;;;;13.82;65.47;99437.44;4234160;82;21057;-84
2022/10/10 16:23:29;;;;;;;12.98;5.60;;;;;;;13.45;66.41;99431.34;4231899;82;21015;-83
2022/10/10 16:29:31;;;;;;;23.20;10.78;;;;;;;13.19;67.29;99425.45;4237802;81;20990;-83
2022/10/10 16:35:36;;;;;;;23.80;11.25;;;;;;;12.97;67.85;99422.88;4142301;84;21051;-83
2022/10/10 16:41:38;;;;;;;27.07;11.78;;;;;;;12.76;68.45;99413.89;4101357;84;21054;-83
2022/10/10 16:47:39;;;;;;;19.50;10.68;;;;;;;12.62;69.08;99422.00;4095560;85;21672;-82
2022/10/10 16:53:42;;;;;;;24.63;9.90;;;;;;;12.22;69.44;99416.46;4093040;85;21058;-83
2022/10/10 16:59:43;;;;;;;16.48;8.93;;;;;;;11.99;71.30;99422.67;4099306;85;21522;-83
2022/10/10 17:05:44;;;;;;;26.77;12.90;;;;;;;11.97;72.21;99419.50;4103465;85;21992;-84
2022/10/10 17:11:46;;;;;;;30.30;13.03;;;;;;;11.76;72.44;99424.13;4101075;83;21058;-84
2022/10/10 17:17:47;;;;;;;30.95;14.38;;;;;;;11.63;73.01;99425.55;4098719;85;21118;-83
2022/10/10 17:23:51;;;;;;;31.42;12.40;;;;;;;11.44;73.46;99421.52;4084069;85;21523;-83
2022/10/10 17:29:54;;;;;;;31.20;14.60;;;;;;;11.28;73.98;99415.98;4109154;85;21126;-83
2022/10/10 17:35:55;;;;;;;32.13;15.55;;;;;;;11.07;74.81;99419.98;4071827;85;21019;-82
2022/10/10 17:41:59;;;;;;;32.03;16.07;;;;;;;10.94;75.14;99419.19;3968740;82;9999694;-82
2022/10/10 17:48:08;;;;;;;36.63;17.98;;;;;;;10.67;75.06;99407.96;4055254;85;21087;-83
2022/10/10 17:54:09;;;;;;;39.48;18.82;;;;;;;10.47;76.04;99407.81;4050325;85;21040;-84
2022/10/10 18:00:12;;;;;;;43.17;20.35;;;;;;;10.19;75.89;99407.28;4109987;85;21237;-83
2022/10/10 18:06:19;;;;;;;80.92;37.70;;;;;;;9.99;77.46;99409.80;4099656;85;21130;-83
2022/10/10 18:12:20;;;;;;;52.05;28.38;;;;;;;9.76;77.49;99402.08;4104504;85;20982;-83
2022/10/10 18:18:22;;;;;;;42.53;25.65;;;;;;;9.61;79.11;99394.74;4042393;86;21028;-84
2022/10/10 18:24:23;;;;;;;73.40;38.65;;;;;;;9.40;79.59;99402.70;4232904;82;20997;-83
2022/10/10 18:30:26;;;;;;;68.07;33.80;;;;;;;9.43;79.66;99397.09;4223556;82;21025;-84
2022/10/10 18:36:30;;;;;;;50.91;25.81;;;;;;;9.32;80.15;99393.33;4019405;83;10000491;-84
2022/10/10 18:42:31;;;;;;;48.42;26.15;;;;;;;9.07;79.89;99394.14;4221234;82;21718;-83
2022/10/10 18:48:34;;;;;;;41.88;24.20;;;;;;;8.90;80.83;99389.06;4238526;82;21665;-83
2022/10/10 18:54:37;;;;;;;55.90;27.30;;;;;;;8.91;81.49;99381.67;4239864;82;21069;-83
2022/10/10 19:00:38;;;;;;;48.13;25.20;;;;;;;8.69;81.40;99382.30;4121003;84;20967;-82
2022/10/10 19:06:41;;;;;;;50.33;27.37;;;;;;;8.66;82.83;99380.28;4120758;84;21004;-83
2022/10/10 19:12:46;;;;;;;56.28;29.70;;;;;;;8.46;81.70;99378.02;4055980;85;21070;-83
2022/10/10 19:18:46;;;;;;;81.57;37.88;;;;;;;8.25;82.75;99378.85;4060193;85;21087;-83
2022/10/10 19:24:52;;;;;;;87.40;42.55;;;;;;;8.26;83.49;99385.88;4061880;85;21019;-86
2022/10/10 19:30:51;;;;;;;76.40;36.95;;;;;;;8.14;83.38;99379.67;4220795;82;21100;-84
2022/10/10 19:36:53;;;;;;;77.30;37.48;;;;;;;8.06;84.06;99382.78;4092705;80;10000349;-86
2022/10/10 19:42:54;;;;;;;76.17;39.58;;;;;;;7.76;83.64;99380.99;4242078;82;20982;-83
2022/10/10 19:48:57;;;;;;;83.45;41.08;;;;;;;7.68;84.80;99393.39;4237353;83;21470;-83
2022/10/10 19:54:59;;;;;;;78.35;40.92;;;;;;;7.69;84.99;99393.60;4117099;84;21403;-83
2022/10/10 20:01:10;;;;;;;64.58;35.73;;;;;;;7.70;85.15;99399.30;4113501;84;21073;-82
2022/10/10 20:07:11;;;;;;;63.58;34.45;;;;;;;7.59;84.86;99396.27;4074818;85;21097;-83
2022/10/10 20:13:14;;;;;;;56.35;32.00;;;;;;;7.41;85.82;99400.95;4218014;82;21641;-85
2022/10/10 20:19:16;;;;;;;57.55;31.33;;;;;;;7.41;85.89;99408.56;4221225;82;21013;-82
2022/10/10 20:25:17;;;;;;;54.42;28.85;;;;;;;7.20;86.19;99403.84;4175293;84;21022;-82
2022/10/10 20:31:25;;;;;;;50.17;29.18;;;;;;;7.16;85.79;99395.31;4234664;82;21049;-82
2022/10/10 20:37:27;;;;;;;48.92;26.93;;;;;;;7.05;87.10;99399.64;4022780;84;9999576;-82
2022/10/10 20:43:31;;;;;;;52.55;27.70;;;;;;;7.03;86.94;99386.38;4068129;85;21047;-84
2022/10/10 20:49:33;;;;;;;45.33;25.02;;;;;;;7.00;87.34;99401.25;4091131;85;21083;-85
2022/10/10 20:55:34;;;;;;;42.60;23.20;;;;;;;7.00;87.73;99402.61;4091350;85;21018;-82
2022/10/10 21:01:36;;;;;;;44.40;25.45;;;;;;;6.94;88.15;99410.20;4093042;85;21086;-82
2022/10/10 21:07:37;;;;;;;41.33;23.57;;;;;;;6.95;88.17;99404.20;4096339;85;21039;-82
2022/10/10 21:13:42;;;;;;;44.13;24.60;;;;;;;6.91;88.41;99412.25;4096602;85;21047;-83
2022/10/10 21:19:44;;;;;;;38.28;22.07;;;;;;;6.84;88.67;99409.87;4089168;85;21044;-85
2022/10/10 21:25:45;;;;;;;43.38;25.02;;;;;;;6.72;88.14;99398.98;4090679;85;21078;-83
2022/10/10 21:31:47;;;;;;;42.85;23.27;;;;;;;6.73;89.69;99406.01;4102132;84;21154;-83
2022/10/10 21:37:48;;;;;;;48.28;24.50;;;;;;;6.71;89.80;99399.55;4107644;85;21564;-82
2022/10/10 21:43:53;;;;;;;43.80;23.35;;;;;;;6.74;89.98;99406.22;4103991;85;21050;-83
2022/10/10 21:49:54;;;;;;;45.20;24.20;;;;;;;6.69;90.66;99410.55;4101049;85;21542;-83
2022/10/10 21:55:56;;;;;;;49.53;24.55;;;;;;;6.85;91.46;99409.53;4110344;85;21046;-83
2022/10/10 22:01:58;;;;;;;43.50;23.05;;;;;;;6.88;90.76;99410.77;4105905;85;21022;-84
2022/10/10 22:07:59;;;;;;;45.08;24.77;;;;;;;6.79;91.17;99416.89;4119857;85;22016;-83
2022/10/10 22:14:01;;;;;;;45.03;22.82;;;;;;;6.80;90.95;99417.91;4109483;85;21093;-83
2022/10/10 22:20:06;;;;;;;52.53;23.20;;;;;;;6.83;91.98;99414.51;4111076;85;21655;-83
2022/10/10 22:26:11;;;;;;;46.25;24.52;;;;;;;6.75;91.39;99415.41;4109291;85;21078;-83
2022/10/10 22:32:13;;;;;;;42.58;24.82;;;;;;;6.67;91.62;99414.17;4097480;85;21034;-84
2022/10/10 22:38:14;;;;;;;39.98;20.95;;;;;;;6.68;91.87;99419.83;4091698;85;21475;-82
2022/10/10 22:44:17;;;;;;;44.35;23.02;;;;;;;6.68;92.32;99421.19;4093656;85;21582;-82
2022/10/10 22:50:18;;;;;;;41.35;24.95;;;;;;;6.64;92.25;99421.06;4093285;85;21066;-84
2022/10/10 22:56:23;;;;;;;45.03;25.43;;;;;;;6.61;92.35;99421.74;4230013;82;22467;-84
2022/10/10 23:02:25;;;;;;;38.95;21.12;;;;;;;6.59;92.39;99421.86;4130592;84;20976;-83
2022/10/10 23:08:26;;;;;;;46.48;22.87;;;;;;;6.57;92.70;99420.04;4097365;87;21020;-83
2022/10/10 23:14:27;;;;;;;41.75;22.95;;;;;;;6.48;92.70;99428.31;4086834;85;21447;-83
2022/10/10 23:20:29;;;;;;;38.20;21.48;;;;;;;6.46;92.89;99431.93;4086811;85;21043;-82
2022/10/10 23:26:30;;;;;;;37.78;20.43;;;;;;;6.46;93.40;99429.77;4083928;85;21079;-82
2022/10/10 23:32:31;;;;;;;37.40;20.52;;;;;;;6.51;93.97;99429.00;4084248;85;21012;-83
2022/10/10 23:38:33;;;;;;;39.70;21.12;;;;;;;6.52;94.12;99425.14;4086651;85;20979;-83
2022/10/10 23:44:35;;;;;;;41.08;21.25;;;;;;;6.59;94.07;99427.30;4084512;85;22156;-82
2022/10/10 23:50:36;;;;;;;40.95;22.00;;;;;;;6.58;94.02;99435.25;4087785;85;21100;-83
2022/10/10 23:56:39;;;;;;;42.58;21.87;;;;;;;6.56;94.38;99438.30;4228596;82;21002;-82
